^^
Your Local Weather - Clay, NY Station Historical Data
Daily Summary for March 8, 2017 Units:  Metric    English   Both
« Previous Day
Next Day »
Daily Weekly Monthly Yearly Custom
  High: Low: Average:
Temperature: 11.6 °C 0.9 °C 6.6 °C
Dew Point: 5.2 °C -9.6 °C -1.7 °C
Humidity: 93% 25% 61%
Wind Speed: 17.7km/h 0km/h 6.8km/h
Wind Gust: 32.2km/h - -
Wind- - WSW
Pressure: 1014.1 hPa 1005.6 hPa -
Precipitation: 6.35 mm    
Historical Graphs
 
 
Tabular Data for March 8, 2017
Time Temperature Dew Point Pressure Wind Wind Speed Wind Gust Humidity Rainfall Rate (Hourly) solar
00:02 7.2 °C 5.2 °C 1010.4 hPa WNW 11.3 km/h 16.1 km/h 87% 1.78 mm 0 W/m2
00:08 6.8 °C 4.8 °C 1010.4 hPa NW 11.3 km/h 22.5 km/h 87% 1.27 mm 0 W/m2
00:14 6.5 °C 4.5 °C 1010.4 hPa West 11.3 km/h 11.3 km/h 87% 1.27 mm 0 W/m2
00:20 6.3 °C 4.4 °C 1010.4 hPa WNW 9.7 km/h 9.7 km/h 88% 1.02 mm 0 W/m2
00:26 6.2 °C 4.3 °C 1010.4 hPa WNW 8 km/h 9.7 km/h 88% 0 mm 0 W/m2
00:32 6.1 °C 4.2 °C 1010.4 hPa West 6.4 km/h 6.4 km/h 88% 0 mm 0 W/m2
00:38 6 °C 4.2 °C 1010.7 hPa WNW 6.4 km/h 6.4 km/h 88% 0 mm 0 W/m2
00:44 6 °C 4.2 °C 1010.7 hPa NW 4.8 km/h 6.4 km/h 88% 0 mm 0 W/m2
00:50 5.9 °C 4.1 °C 1010.7 hPa NNW 4.8 km/h 4.8 km/h 88% 0 mm 0 W/m2
00:56 5.9 °C 4.1 °C 1010.7 hPa West 4.8 km/h 8 km/h 88% 0 mm 0 W/m2
01:02 5.9 °C 3.9 °C 1011.4 hPa West 4.8 km/h 6.4 km/h 87% 0 mm 0 W/m2
01:08 5.8 °C 3.8 °C 1011.4 hPa NW 6.4 km/h 6.4 km/h 87% 0 mm 0 W/m2
01:14 5.8 °C 3.6 °C 1011.4 hPa NNW 4.8 km/h 9.7 km/h 86% 0 mm 0 W/m2
01:20 5.7 °C 3.5 °C 1011.7 hPa WNW 3.2 km/h 3.2 km/h 86% 0 mm 0 W/m2
01:26 5.6 °C 3.4 °C 1012.1 hPa West 3.2 km/h 6.4 km/h 86% 0 mm 0 W/m2
01:32 5.5 °C 3.3 °C 1012.4 hPa WSW 3.2 km/h 8 km/h 86% 0 mm 0 W/m2
01:38 5.4 °C 3.4 °C 1012.4 hPa NW 3.2 km/h 8 km/h 87% 0 mm 0 W/m2
01:44 5.3 °C 3.3 °C 1012.4 hPa WSW 4.8 km/h 14.5 km/h 87% 2.29 mm 0 W/m2
01:50 5.3 °C 3.3 °C 1012.1 hPa WNW 4.8 km/h 4.8 km/h 87% 2.03 mm 0 W/m2
01:56 5.1 °C 3.1 °C 1012.4 hPa WNW 6.4 km/h 11.3 km/h 87% 2.03 mm 0 W/m2
02:02 5 °C 3 °C 1012.4 hPa WNW 6.4 km/h 6.4 km/h 87% 2.03 mm 0 W/m2
02:08 4.8 °C 2.8 °C 1013.1 hPa WNW 6.4 km/h 12.9 km/h 87% 1.27 mm 0 W/m2
02:14 4.7 °C 2.7 °C 1013.1 hPa WNW 6.4 km/h 9.7 km/h 87% 1.02 mm 0 W/m2
02:20 4.6 °C 2.6 °C 1013.8 hPa West 6.4 km/h 12.9 km/h 87% 1.02 mm 0 W/m2
02:26 4.5 °C 2.5 °C 1013.4 hPa West 6.4 km/h 12.9 km/h 87% 1.27 mm 0 W/m2
02:32 4.4 °C 2.4 °C 1013.4 hPa WNW 4.8 km/h 4.8 km/h 87% 1.52 mm 0 W/m2
02:38 4.3 °C 2.3 °C 1013.4 hPa WNW 6.4 km/h 9.7 km/h 87% 4.57 mm 0 W/m2
02:44 4.1 °C 2.1 °C 1013.4 hPa West 6.4 km/h 9.7 km/h 87% 4.06 mm 0 W/m2
02:50 3.9 °C 1.9 °C 1013.1 hPa WNW 8 km/h 8 km/h 87% 1.78 mm 0 W/m2
02:56 3.8 °C 2 °C 1013.1 hPa WNW 3.2 km/h 8 km/h 88% 1.78 mm 0 W/m2
03:02 3.6 °C 1.8 °C 1012.4 hPa WNW 3.2 km/h 3.2 km/h 88% 1.52 mm 0 W/m2
03:08 3.6 °C 1.8 °C 1013.1 hPa WNW 1.6 km/h 4.8 km/h 88% 1.52 mm 0 W/m2
03:14 3.6 °C 1.9 °C 1013.1 hPa WNW 1.6 km/h 4.8 km/h 89% 1.27 mm 0 W/m2
03:20 3.5 °C 1.8 °C 1013.4 hPa WNW 1.6 km/h 3.2 km/h 89% 2.29 mm 0 W/m2
03:26 3.4 °C 1.8 °C 1013.4 hPa West 3.2 km/h 3.2 km/h 89% 2.29 mm 0 W/m2
03:32 3.4 °C 1.7 °C 1013.1 hPa West 1.6 km/h 4.8 km/h 89% 1.52 mm 0 W/m2
03:38 3.4 °C 1.9 °C 1013.1 hPa West 1.6 km/h 4.8 km/h 90% 1.78 mm 0 W/m2
03:44 3.3 °C 1.8 °C 1013.4 hPa West 1.6 km/h 1.6 km/h 90% 1.78 mm 0 W/m2
03:50 3.2 °C 1.7 °C 1013.4 hPa West 1.6 km/h 1.6 km/h 90% 1.52 mm 0 W/m2
03:56 3.1 °C 1.6 °C 1013.1 hPa West 1.6 km/h 1.6 km/h 90% 2.54 mm 0 W/m2
04:02 3.1 °C 1.6 °C 1013.4 hPa Calm     90% 1.78 mm 0 W/m2
04:08 3.1 °C 1.6 °C 1013.1 hPa Calm     90% 1.78 mm 0 W/m2
04:14 3 °C 1.5 °C 1013.4 hPa Calm   1.6 km/h 90% 2.03 mm 0 W/m2
04:20 2.9 °C 1.4 °C 1013.4 hPa NW 1.6 km/h 1.6 km/h 90% 1.52 mm 0 W/m2
04:26 2.8 °C 1.3 °C 1013.4 hPa NW 1.6 km/h 3.2 km/h 90% 1.02 mm 0 W/m2
04:32 2.7 °C 1.2 °C 1013.4 hPa West 1.6 km/h 1.6 km/h 90% 0 mm 0 W/m2
04:38 2.7 °C 1.2 °C 1013.4 hPa West 1.6 km/h 1.6 km/h 90% 0 mm 0 W/m2
04:44 2.7 °C 1.2 °C 1013.1 hPa Calm     90% 0 mm 0 W/m2
04:50 2.7 °C 1.2 °C 1013.8 hPa West 1.6 km/h 1.6 km/h 90% 0 mm 0 W/m2
04:56 2.7 °C 1.3 °C 1013.4 hPa West 1.6 km/h 1.6 km/h 91% 0 mm 0 W/m2
05:02 2.6 °C 1.3 °C 1013.4 hPa West 1.6 km/h 1.6 km/h 91% 0 mm 0 W/m2
05:08 2.6 °C 1.2 °C 1013.1 hPa Calm   1.6 km/h 91% 0 mm 0 W/m2
05:14 2.4 °C 1.1 °C 1012.4 hPa Calm   4.8 km/h 91% 0 mm 0 W/m2
05:20 2.4 °C 1.1 °C 1013.4 hPa West 1.6 km/h 1.6 km/h 91% 0 mm 0 W/m2
05:26 2.4 °C 1.1 °C 1013.1 hPa West 1.6 km/h 1.6 km/h 91% 0 mm 0 W/m2
05:32 2.2 °C 0.9 °C 1013.1 hPa Calm   1.6 km/h 91% 0 mm 0 W/m2
05:38 2.2 °C 0.9 °C 1013.4 hPa West 1.6 km/h 1.6 km/h 91% 0 mm 0 W/m2
05:44 2.3 °C 0.9 °C 1013.4 hPa West 1.6 km/h 4.8 km/h 91% 0 mm 0 W/m2
05:50 2.2 °C 1 °C 1013.4 hPa Calm     92% 0 mm 0 W/m2
05:56 2.1 °C 0.9 °C 1013.4 hPa Calm   1.6 km/h 92% 0 mm 0 W/m2
06:02 2.2 °C 1 °C 1013.8 hPa West 1.6 km/h 1.6 km/h 92% 0 mm 0 W/m2
06:08 2.1 °C 0.9 °C 1014.1 hPa Calm   4.8 km/h 92% 0 mm 0 W/m2
06:14 2 °C 0.8 °C 1014.1 hPa Calm     92% 0 mm 0 W/m2
06:16 1.9 °C 0.8 °C 1014.1 hPa Calm     92% 0 mm 0 W/m2
06:22 1.7 °C 0.6 °C 1013.8 hPa Calm   3.2 km/h 92% 0 mm 0 W/m2
06:28 1.4 °C 0.3 °C 1013.4 hPa Calm   3.2 km/h 92% 0 mm 0 W/m2
06:34 1.2 °C 0.1 °C 1013.4 hPa Calm     92% 0 mm 5 W/m2
06:40 0.9 °C -0.2 °C 1013.4 hPa Calm     92% 0 mm 5 W/m2
06:46 1.1 °C -0.1 °C 1013.4 hPa Calm   3.2 km/h 92% 0 mm 9 W/m2
06:52 1.1 °C -0.1 °C 1013.4 hPa Calm     92% 0 mm 11 W/m2
06:58 1.2 °C 0.1 °C 1013.4 hPa Calm     92% 0 mm 14 W/m2
07:04 1.1 °C -0.1 °C 1013.4 hPa Calm     92% 0 mm 21 W/m2
07:10 1 °C -0.2 °C 1013.4 hPa Calm     92% 0 mm 21 W/m2
07:16 1.1 °C -0.1 °C 1013.4 hPa Calm     92% 0 mm 32 W/m2
07:22 1.4 °C 0.3 °C 1013.1 hPa Calm   1.6 km/h 92% 0 mm 35 W/m2
07:28 1.8 °C 0.6 °C 1013.1 hPa SSE 1.6 km/h 4.8 km/h 92% 0 mm 35 W/m2
07:34 2 °C 0.8 °C 1013.1 hPa SSE 3.2 km/h 3.2 km/h 92% 0 mm 77 W/m2
07:40 2.5 °C 1.3 °C 1013.1 hPa South 3.2 km/h 4.8 km/h 92% 0 mm 88 W/m2
07:46 2.9 °C 1.9 °C 1012.8 hPa South 3.2 km/h 4.8 km/h 93% 0 mm 144 W/m2
07:52 3.3 °C 2.2 °C 1012.8 hPa SSW 3.2 km/h 4.8 km/h 92% 0 mm 79 W/m2
07:58 3.6 °C 2.4 °C 1012.8 hPa SSW 3.2 km/h 4.8 km/h 92% 0 mm 158 W/m2
08:04 3.9 °C 2.8 °C 1012.4 hPa South 3.2 km/h 4.8 km/h 92% 0 mm 137 W/m2
08:10 4.3 °C 2.8 °C 1012.4 hPa South 4.8 km/h 4.8 km/h 90% 0 mm 183 W/m2
08:16 4.7 °C 2.8 °C 1012.4 hPa South 3.2 km/h 8 km/h 88% 0 mm 169 W/m2
08:22 4.9 °C 2.6 °C 1012.1 hPa SSW 4.8 km/h 4.8 km/h 85% 0 mm 151 W/m2
08:28 5.3 °C 2.8 °C 1012.1 hPa South 4.8 km/h 4.8 km/h 84% 0 mm 195 W/m2
08:34 5.7 °C 2.3 °C 1012.1 hPa SW 4.8 km/h 14.5 km/h 79% 0 mm 283 W/m2
08:40 5.8 °C 1.9 °C 1012.1 hPa SSW 8 km/h 8 km/h 76% 0 mm 315 W/m2
08:46 6.1 °C 1.8 °C 1012.1 hPa SSW 6.4 km/h 8 km/h 74% 0 mm 295 W/m2
08:52 6.4 °C 1.9 °C 1012.1 hPa South 6.4 km/h 6.4 km/h 73% 0 mm 388 W/m2
08:58 6.7 °C 1.8 °C 1012.1 hPa WNW 6.4 km/h 11.3 km/h 71% 0 mm 427 W/m2
09:04 7 °C 2.1 °C 1012.1 hPa SSW 6.4 km/h 6.4 km/h 71% 0 mm 446 W/m2
09:10 7.2 °C 1.7 °C 1012.1 hPa SW 6.4 km/h 9.7 km/h 68% 0 mm 462 W/m2
09:16 7.3 °C 1.6 °C 1012.1 hPa SW 6.4 km/h 11.3 km/h 67% 0 mm 475 W/m2
09:22 7.3 °C 1.6 °C 1011.7 hPa South 9.7 km/h 9.7 km/h 67% 0 mm 487 W/m2
09:28 7.7 °C 1.7 °C 1011.4 hPa SSW 9.7 km/h 14.5 km/h 66% 0 mm 508 W/m2
09:34 7.8 °C 1.8 °C 1011.4 hPa SW 8 km/h 16.1 km/h 66% 0 mm 529 W/m2
09:40 8.1 °C 1.9 °C 1011.4 hPa SW 8 km/h 8 km/h 65% 0 mm 615 W/m2
09:46 8.1 °C 1.4 °C 1011.1 hPa SSE 8 km/h 11.3 km/h 63% 0 mm 165 W/m2
09:52 7.7 °C 0.4 °C 1011.1 hPa SW 9.7 km/h 9.7 km/h 60% 0 mm 134 W/m2
09:58 7.4 °C 0.6 °C 1011.1 hPa SW 8 km/h 14.5 km/h 62% 0 mm 121 W/m2
10:04 7.4 °C 0.6 °C 1011.1 hPa South 8 km/h 12.9 km/h 62% 0 mm 127 W/m2
10:10 7.4 °C 0.6 °C 1011.1 hPa South 8 km/h 8 km/h 62% 0 mm 504 W/m2
10:16 8.2 °C 1.1 °C 1010.7 hPa SW 8 km/h 14.5 km/h 61% 0 mm 613 W/m2
10:22 8.5 °C 0.7 °C 1010.7 hPa SW 11.3 km/h 12.9 km/h 58% 0 mm 621 W/m2
10:28 8.6 °C 0.1 °C 1010.4 hPa SW 11.3 km/h 20.9 km/h 55% 0 mm 628 W/m2
10:34 9 °C 0.9 °C 1010.4 hPa West 9.7 km/h 11.3 km/h 57% 0 mm 638 W/m2
10:40 9.2 °C 0.8 °C 1010.4 hPa SW 9.7 km/h 9.7 km/h 56% 0 mm 647 W/m2
10:46 9.3 °C 0.5 °C 1010 hPa SSW 9.7 km/h 11.3 km/h 54% 0 mm 656 W/m2
10:52 9.6 °C 0.5 °C 1010 hPa SW 11.3 km/h 12.9 km/h 53% 0 mm 661 W/m2
10:58 9.8 °C 0.1 °C 1010 hPa SW 9.7 km/h 20.9 km/h 51% 0 mm 671 W/m2
11:04 9.9 °C 0.5 °C 1009.7 hPa SW 11.3 km/h 22.5 km/h 52% 0 mm 677 W/m2
11:10 9.7 °C 0.1 °C 1009.7 hPa SW 12.9 km/h 12.9 km/h 51% 0 mm 680 W/m2
11:16 10.1 °C 0.9 °C 1009.4 hPa South 11.3 km/h 12.9 km/h 53% 0 mm 686 W/m2
11:22 10.1 °C 0.4 °C 1009.4 hPa SW 9.7 km/h 25.7 km/h 51% 0 mm 694 W/m2
11:28 10.3 °C 0.9 °C 1009 hPa South 11.3 km/h 25.7 km/h 52% 0 mm 707 W/m2
11:34 10.6 °C 0.3 °C 1009 hPa SW 11.3 km/h 24.1 km/h 49% 0 mm 489 W/m2
11:40 10.5 °C 0.2 °C 1009 hPa SSE 11.3 km/h 12.9 km/h 49% 0 mm 744 W/m2
11:46 10.3 °C -0.2 °C 1008.7 hPa SW 12.9 km/h 14.5 km/h 48% 0 mm 98 W/m2
11:52 9.8 °C -0.7 °C 1008.7 hPa SW 11.3 km/h 12.9 km/h 48% 0 mm 72 W/m2
11:58 9.6 °C -0.1 °C 1008.7 hPa SSW 9.7 km/h 19.3 km/h 51% 0 mm 19 W/m2
12:04 9.2 °C 0.1 °C 1009 hPa West 11.3 km/h 19.3 km/h 53% 0 mm 18 W/m2
12:10 8.4 °C 0.6 °C 1009 hPa West 12.9 km/h 30.6 km/h 58% 0 mm 60 W/m2
12:16 7.8 °C 1.6 °C 1008.7 hPa SW 14.5 km/h 30.6 km/h 65% 2.54 mm 93 W/m2
12:22 8.2 °C 1.1 °C 1008.4 hPa WNW 9.7 km/h 11.3 km/h 61% 1.78 mm 54 W/m2
12:28 8.3 °C 0.7 °C 1008.4 hPa West 9.7 km/h 14.5 km/h 59% 1.02 mm 88 W/m2
12:34 8.7 °C -0.1 °C 1008.4 hPa WSW 8 km/h 12.9 km/h 54% 0 mm 114 W/m2
12:40 9.3 °C -0.8 °C 1008.4 hPa WNW 9.7 km/h 12.9 km/h 49% 0 mm 715 W/m2
12:46 10.1 °C -1.9 °C 1008 hPa WNW 9.7 km/h 14.5 km/h 43% 0 mm 786 W/m2
12:52 10.2 °C -2.4 °C 1007.7 hPa WSW 9.7 km/h 11.3 km/h 41% 0 mm 745 W/m2
12:58 10.8 °C -4.5 °C 1007.7 hPa SW 14.5 km/h 19.3 km/h 34% 0 mm 752 W/m2
13:04 11.3 °C -4 °C 1007.7 hPa WNW 14.5 km/h 19.3 km/h 34% 0 mm 768 W/m2
13:10 11.3 °C -5.3 °C 1007.7 hPa West 14.5 km/h 16.1 km/h 31% 0 mm 548 W/m2
13:16 10.4 °C -6 °C 1007.7 hPa NW 14.5 km/h 17.7 km/h 31% 0 mm 188 W/m2
13:22 9.7 °C -5.4 °C 1007.3 hPa West 12.9 km/h 19.3 km/h 34% 0 mm 139 W/m2
13:28 9.4 °C -5.3 °C 1007.7 hPa West 11.3 km/h 19.3 km/h 35% 0 mm 97 W/m2
13:34 9.4 °C -5.3 °C 1007.7 hPa West 9.7 km/h 11.3 km/h 35% 0 mm 130 W/m2
13:40 9.4 °C -4.9 °C 1008 hPa SW 11.3 km/h 17.7 km/h 36% 0 mm 88 W/m2
13:46 8.6 °C -4.3 °C 1008.4 hPa SW 16.1 km/h 19.3 km/h 40% 0 mm 62 W/m2
13:52 8.3 °C -4.8 °C 1008 hPa West 17.7 km/h 25.7 km/h 39% 0 mm 107 W/m2
13:58 8.4 °C -4.4 °C 1007.7 hPa SSW 12.9 km/h 30.6 km/h 40% 0 mm 128 W/m2
14:04 8.7 °C -3.9 °C 1007.3 hPa West 12.9 km/h 12.9 km/h 41% 0 mm 163 W/m2
14:10 9.2 °C -3.7 °C 1007.3 hPa SW 9.7 km/h 9.7 km/h 40% 0 mm 693 W/m2
14:16 9.8 °C -4.2 °C 1007.3 hPa SW 8 km/h 9.7 km/h 37% 0 mm 450 W/m2
14:22 9.9 °C -4.4 °C 1007 hPa WSW 8 km/h 16.1 km/h 36% 0 mm 223 W/m2
14:28 10.1 °C -5.4 °C 1007 hPa WSW 8 km/h 16.1 km/h 33% 0 mm 330 W/m2
14:34 10.3 °C -6.1 °C 1006.7 hPa SSW 9.7 km/h 12.9 km/h 31% 0 mm 220 W/m2
14:40 10.4 °C -7.3 °C 1006.7 hPa West 9.7 km/h 9.7 km/h 28% 0 mm 195 W/m2
14:46 10.6 °C -6.8 °C 1006.7 hPa WSW 9.7 km/h 9.7 km/h 29% 0 mm 153 W/m2
14:52 10.6 °C -7.7 °C 1006.7 hPa WSW 9.7 km/h 20.9 km/h 27% 0 mm 306 W/m2
14:58 11.6 °C -6.3 °C 1006.7 hPa WSW 9.7 km/h 25.7 km/h 28% 0 mm 589 W/m2
15:04 11.6 °C -7.3 °C 1006.7 hPa WSW 11.3 km/h 16.1 km/h 26% 0 mm 362 W/m2
15:10 11.4 °C -7.9 °C 1006.3 hPa NW 9.7 km/h 14.5 km/h 25% 0 mm 229 W/m2
15:16 11.1 °C -8.2 °C 1006.3 hPa West 12.9 km/h 17.7 km/h 25% 0 mm 257 W/m2
15:22 11.1 °C -7.8 °C 1006.3 hPa SW 9.7 km/h 16.1 km/h 26% 0 mm 139 W/m2
15:28 10.8 °C -8 °C 1006.3 hPa SW 12.9 km/h 16.1 km/h 26% 0 mm 102 W/m2
15:34 10.6 °C -8.7 °C 1006.3 hPa WSW 16.1 km/h 19.3 km/h 25% 0 mm 128 W/m2
15:40 10.5 °C -7.7 °C 1006.3 hPa NW 16.1 km/h 16.1 km/h 27% 0 mm 100 W/m2
15:46 10.3 °C -7.4 °C 1006.3 hPa West 11.3 km/h 32.2 km/h 28% 0 mm 83 W/m2
15:52 10.3 °C -7 °C 1006.3 hPa WNW 12.9 km/h 12.9 km/h 29% 0 mm 118 W/m2
15:58 10.1 °C -7.2 °C 1006.3 hPa West 12.9 km/h 12.9 km/h 29% 0 mm 74 W/m2
16:04 10.1 °C -6.8 °C 1006.3 hPa SSW 11.3 km/h 11.3 km/h 30% 0 mm 60 W/m2
16:10 10.1 °C -6.8 °C 1006.3 hPa SW 9.7 km/h 9.7 km/h 30% 0 mm 107 W/m2
16:16 10 °C -6.4 °C 1006.3 hPa WSW 9.7 km/h 25.7 km/h 31% 0 mm 74 W/m2
16:22 10.1 °C -6.8 °C 1006.7 hPa SW 9.7 km/h 11.3 km/h 30% 0 mm 47 W/m2
16:28 9.8 °C -5.7 °C 1006.7 hPa WSW 12.9 km/h 20.9 km/h 33% 0 mm 67 W/m2
16:34 10 °C -5.9 °C 1006.3 hPa SSW 16.1 km/h 27.4 km/h 32% 0 mm 383 W/m2
16:40 9.9 °C -6.1 °C 1006.3 hPa SSW 16.1 km/h 16.1 km/h 32% 0 mm 72 W/m2
16:46 9.5 °C -6 °C 1006.3 hPa WSW 14.5 km/h 16.1 km/h 33% 0 mm 229 W/m2
16:52 9.8 °C -6.6 °C 1006.3 hPa WSW 14.5 km/h 14.5 km/h 31% 0 mm 65 W/m2
16:58 9.7 °C -6.2 °C 1006.3 hPa West 9.7 km/h 14.5 km/h 32% 0 mm 33 W/m2
17:04 9.7 °C -6.7 °C 1006 hPa SSW 8 km/h 16.1 km/h 31% 0 mm 42 W/m2
17:10 9.8 °C -6.6 °C 1006 hPa SW 9.7 km/h 9.7 km/h 31% 0 mm 35 W/m2
17:16 9.8 °C -7.4 °C 1006 hPa SW 8 km/h 11.3 km/h 29% 0 mm 35 W/m2
17:22 9.9 °C -7.3 °C 1005.6 hPa SSW 6.4 km/h 11.3 km/h 29% 0 mm 26 W/m2
17:28 9.9 °C -7.3 °C 1005.6 hPa SW 4.8 km/h 11.3 km/h 29% 0 mm 14 W/m2
17:34 9.8 °C -6.9 °C 1006 hPa SW 4.8 km/h 4.8 km/h 30% 0 mm 9 W/m2
17:40 9.7 °C -6.6 °C 1006 hPa SW 3.2 km/h 6.4 km/h 31% 0 mm 12 W/m2
17:46 9.8 °C -7.4 °C 1005.6 hPa West 4.8 km/h 12.9 km/h 29% 0 mm 7 W/m2
17:52 10.1 °C -8.1 °C 1006 hPa WSW 6.4 km/h 8 km/h 27% 0 mm 0 W/m2
17:58 10 °C -7.3 °C 1006 hPa SSW 6.4 km/h 8 km/h 29% 0 mm 0 W/m2
18:04 9.9 °C -6.9 °C 1006.3 hPa WSW 6.4 km/h 19.3 km/h 30% 0 mm 0 W/m2
18:10 10.2 °C -7.5 °C 1006.3 hPa West 11.3 km/h 22.5 km/h 28% 0 mm 0 W/m2
18:16 10.3 °C -7.4 °C 1006.3 hPa West 11.3 km/h 22.5 km/h 28% 0 mm 0 W/m2
18:22 10.1 °C -7.2 °C 1006.3 hPa West 8 km/h 9.7 km/h 29% 0 mm 0 W/m2
18:28 9.9 °C -6.8 °C 1006.7 hPa West 6.4 km/h 9.7 km/h 30% 0 mm 0 W/m2
18:34 9.9 °C -7.3 °C 1006.7 hPa West 4.8 km/h 6.4 km/h 29% 0 mm 0 W/m2
18:40 9.8 °C -6.9 °C 1006.7 hPa West 6.4 km/h 12.9 km/h 30% 0 mm 0 W/m2
18:46 9.9 °C -6 °C 1006.7 hPa WSW 9.7 km/h 29 km/h 32% 0 mm 0 W/m2
18:52 9.9 °C -6 °C 1006.7 hPa West 12.9 km/h 29 km/h 32% 0 mm 0 W/m2
18:58 9.9 °C -5.7 °C 1006.7 hPa WSW 14.5 km/h 29 km/h 33% 0 mm 0 W/m2
19:04 9.8 °C -5.7 °C 1006.7 hPa West 12.9 km/h 16.1 km/h 33% 0 mm 0 W/m2
19:10 9.8 °C -5.8 °C 1006.7 hPa SW 11.3 km/h 14.5 km/h 33% 0 mm 0 W/m2
19:16 10 °C -6.8 °C 1006.7 hPa WSW 14.5 km/h 20.9 km/h 30% 0 mm 0 W/m2
19:22 9.8 °C -7.4 °C 1007.3 hPa West 14.5 km/h 14.5 km/h 29% 0 mm 0 W/m2
19:28 9.9 °C -7.8 °C 1006.7 hPa West 16.1 km/h 22.5 km/h 28% 0 mm 0 W/m2
19:34 9.9 °C -8.3 °C 1006.7 hPa West 17.7 km/h 17.7 km/h 27% 0 mm 0 W/m2
19:40 9.6 °C -8.5 °C 1007 hPa West 14.5 km/h 16.1 km/h 27% 0 mm 0 W/m2
19:46 9.6 °C -9 °C 1006.7 hPa WSW 12.9 km/h 25.7 km/h 26% 0 mm 0 W/m2
19:52 9.4 °C -9.6 °C 1007.3 hPa SW 14.5 km/h 14.5 km/h 25% 0 mm 0 W/m2
19:58 9.4 °C -8.7 °C 1007 hPa West 14.5 km/h 24.1 km/h 27% 0 mm 0 W/m2
20:04 9.3 °C -9.2 °C 1007.7 hPa West 14.5 km/h 14.5 km/h 26% 0 mm 0 W/m2
20:10 8.2 °C -5.3 °C 1008.4 hPa WNW 14.5 km/h 14.5 km/h 38% 0 mm 0 W/m2
20:16 7.3 °C -4.5 °C 1008.4 hPa NW 11.3 km/h 14.5 km/h 43% 0 mm 0 W/m2
20:22 6.8 °C -4.1 °C 1008.4 hPa WNW 9.7 km/h 9.7 km/h 46% 0 mm 0 W/m2
20:28 6.4 °C -3.8 °C 1008.4 hPa WNW 9.7 km/h 11.3 km/h 48% 0 mm 0 W/m2
20:34 6.2 °C -3.7 °C 1008.4 hPa WNW 11.3 km/h 17.7 km/h 49% 0 mm 0 W/m2
20:40 6 °C -3.4 °C 1008.4 hPa WNW 9.7 km/h 9.7 km/h 51% 0 mm 0 W/m2
20:46 5.8 °C -3.1 °C 1008.4 hPa NW 9.7 km/h 11.3 km/h 53% 0 mm 0 W/m2
20:52 5.6 °C -3.1 °C 1008.7 hPa NW 6.4 km/h 8 km/h 54% 0 mm 0 W/m2
20:58 5.5 °C -3.1 °C 1008.7 hPa WNW 4.8 km/h 8 km/h 54% 0 mm 0 W/m2
21:04 5.4 °C -3.2 °C 1008.7 hPa WNW 4.8 km/h 8 km/h 54% 0 mm 0 W/m2
21:10 5.3 °C -3.2 °C 1008.7 hPa WNW 3.2 km/h 3.2 km/h 54% 0 mm 0 W/m2
21:16 5.3 °C -3.3 °C 1008.7 hPa WNW 3.2 km/h 3.2 km/h 54% 0 mm 0 W/m2
21:22 5.2 °C -3.4 °C 1009 hPa WNW 3.2 km/h 6.4 km/h 54% 0 mm 0 W/m2
21:28 5.2 °C -3.6 °C 1008.7 hPa West 3.2 km/h 6.4 km/h 53% 0 mm 0 W/m2
21:34 5.1 °C -3.7 °C 1009 hPa SW 3.2 km/h 6.4 km/h 53% 0 mm 0 W/m2
21:40 5.1 °C -3.5 °C 1009 hPa NW 3.2 km/h 3.2 km/h 54% 0 mm 0 W/m2
21:46 4.9 °C -3.6 °C 1009 hPa West 1.6 km/h 4.8 km/h 54% 0 mm 0 W/m2
21:52 4.8 °C -3.5 °C 1009 hPa WSW 1.6 km/h 1.6 km/h 55% 0 mm 0 W/m2
21:58 4.7 °C -3.6 °C 1009 hPa Calm   3.2 km/h 55% 0 mm 0 W/m2
22:04 4.6 °C -3.5 °C 1009 hPa Calm   1.6 km/h 56% 0 mm 0 W/m2
22:10 4.3 °C -3.7 °C 1009 hPa Calm     56% 0 mm 0 W/m2
22:16 4.1 °C -3.7 °C 1008.7 hPa Calm     57% 0 mm 0 W/m2
22:22 4 °C -3.8 °C 1009 hPa Calm     57% 0 mm 0 W/m2
22:28 3.9 °C -3.9 °C 1009 hPa Calm     57% 0 mm 0 W/m2
22:34 3.8 °C -3.9 °C 1009 hPa Calm     57% 0 mm 0 W/m2
22:40 3.9 °C -3.9 °C 1009 hPa Calm     57% 0 mm 0 W/m2
22:46 3.8 °C -3.7 °C 1009 hPa Calm   1.6 km/h 58% 0 mm 0 W/m2
22:52 3.8 °C -3.7 °C 1009.4 hPa Calm   1.6 km/h 58% 0 mm 0 W/m2
22:58 3.8 °C -3.7 °C 1009.4 hPa WSW 1.6 km/h 3.2 km/h 58% 0 mm 0 W/m2
23:04 3.8 °C -3.7 °C 1009.4 hPa WSW 1.6 km/h 1.6 km/h 58% 0 mm 0 W/m2
23:10 3.7 °C -3.6 °C 1009.4 hPa Calm     59% 0 mm 0 W/m2
23:16 3.6 °C -3.7 °C 1009.4 hPa Calm   1.6 km/h 59% 0 mm 0 W/m2
23:22 3.5 °C -3.8 °C 1009.4 hPa Calm     59% 0 mm 0 W/m2
23:28 3.5 °C -3.8 °C 1009.4 hPa Calm     59% 0 mm 0 W/m2
23:34 3.5 °C -3.8 °C 1009.4 hPa Calm     59% 0 mm 0 W/m2
23:40 3.6 °C -3.7 °C 1009.4 hPa WSW 1.6 km/h 4.8 km/h 59% 0 mm 0 W/m2
23:46 3.9 °C -4.1 °C 1009.4 hPa WSW 3.2 km/h 6.4 km/h 56% 0 mm 0 W/m2
23:52 4.2 °C -4.1 °C 1009.4 hPa West 4.8 km/h 4.8 km/h 55% 0 mm 0 W/m2
23:58 4.2 °C -4.1 °C 1009.4 hPa WSW 3.2 km/h 4.8 km/h 55% 0 mm 0 W/m2
Country Meadow, Clay, NY, USA
Compliments of Weather Underground - 2 mb